Time;durP1;ratioP1;P1;durP2;ratioP2;P2;SDS_P1;SDS_P2;PMS_P1;PMS_P2;Temp;Humidity;BMP_temperature;BMP_pressure;BME280_temperature;BME280_humidity;BME280_pressure;Samples;Min_cycle;Max_cycle;Signal;HPM_P1;HPM_P2
2022/07/03 00:01:29;;;;;;;3.87;2.70;;;17.80;1.00;;;;;;5052949;28;20185;-67
2022/07/03 00:03:54;;;;;;;3.90;2.90;;;17.80;1.00;;;;;;5052752;28;20205;-67
2022/07/03 00:06:20;;;;;;;2.73;2.10;;;17.70;1.00;;;;;;5053064;28;20256;-67
2022/07/03 00:08:46;;;;;;;3.20;2.30;;;17.70;1.00;;;;;;5052545;28;20217;-67
2022/07/03 00:11:12;;;;;;;4.00;2.20;;;17.70;1.00;;;;;;5035927;28;20183;-67
2022/07/03 00:13:38;;;;;;;4.03;2.10;;;17.70;1.00;;;;;;5065680;28;20180;-67
2022/07/03 00:16:04;;;;;;;2.30;2.10;;;17.70;1.00;;;;;;5075080;28;20279;-67
2022/07/03 00:18:30;;;;;;;5.20;2.17;;;17.70;1.00;;;;;;5073199;28;20169;-67
2022/07/03 00:21:01;;;;;;;4.57;2.43;;;17.70;1.00;;;;;;5074787;28;20632;-67
2022/07/03 00:23:34;;;;;;;4.93;2.10;;;17.70;1.00;;;;;;5074893;28;20173;-67
2022/07/03 00:26:02;;;;;;;2.20;2.07;;;17.80;1.00;;;;;;5074681;28;20180;-67
2022/07/03 00:28:29;;;;;;;2.60;2.03;;;17.80;1.00;;;;;;5074680;28;20169;-67
2022/07/03 00:30:56;;;;;;;2.60;1.97;;;17.80;1.00;;;;;;5074611;28;20214;-67
2022/07/03 00:33:26;;;;;;;3.13;2.10;;;17.80;1.00;;;;;;5074247;28;20188;-67
2022/07/03 00:35:54;;;;;;;4.90;2.50;;;17.90;1.00;;;;;;5074524;28;20208;-68
2022/07/03 00:38:21;;;;;;;3.00;2.13;;;17.90;1.00;;;;;;5074221;28;20169;-68
2022/07/03 00:40:47;;;;;;;3.77;2.20;;;18.00;1.00;;;;;;5074413;28;20176;-68
2022/07/03 00:43:15;;;;;;;3.17;2.07;;;18.10;1.00;;;;;;5074450;28;20169;-68
2022/07/03 00:45:48;;;;;;;2.33;1.93;;;18.10;1.00;;;;;;5074539;28;20176;-67
2022/07/03 00:48:15;;;;;;;2.90;1.73;;;18.10;1.00;;;;;;5073875;28;20234;-67
2022/07/03 00:50:46;;;;;;;5.23;2.40;;;18.10;1.00;;;;;;5074350;28;20172;-67
2022/07/03 00:53:13;;;;;;;4.17;2.13;;;18.10;1.00;;;;;;5074248;28;20192;-67
2022/07/03 00:55:42;;;;;;;3.50;2.30;;;18.10;1.00;;;;;;5073440;28;20299;-67
2022/07/03 00:58:08;;;;;;;2.07;1.80;;;18.00;1.00;;;;;;5074049;28;20169;-67
2022/07/03 01:00:40;;;;;;;2.90;1.77;;;17.90;1.00;;;;;;5073888;28;20196;-67
2022/07/03 01:03:07;;;;;;;4.77;1.60;;;18.00;1.00;;;;;;5073542;28;20157;-68
2022/07/03 01:05:42;;;;;;;4.00;1.87;;;18.00;1.00;;;;;;5074065;28;20177;-68
2022/07/03 01:08:45;;;;;;;3.77;1.80;;;18.00;1.00;;;;;;5083847;28;20215;-68
2022/07/03 01:11:45;;;;;;;5.07;1.63;;;18.00;1.00;;;;;;5094100;28;20160;-67
2022/07/03 01:14:35;;;;;;;2.40;1.63;;;18.00;1.00;;;;;;5093964;28;20282;-66
2022/07/03 01:17:11;;;;;;;4.17;1.70;;;18.10;1.00;;;;;;5093648;28;20199;-68
2022/07/03 01:19:45;;;;;;;3.70;1.43;;;18.10;1.00;;;;;;5093604;28;20172;-68
2022/07/03 01:22:36;;;;;;;2.23;1.50;;;18.10;1.00;;;;;;5093707;28;20626;-68
2022/07/03 01:25:14;;;;;;;2.07;1.33;;;18.20;1.00;;;;;;5093939;28;20180;-68
2022/07/03 01:28:11;;;;;;;3.93;2.03;;;18.10;1.00;;;;;;5093975;28;20167;-68
2022/07/03 01:30:38;;;;;;;2.77;2.10;;;18.00;1.00;;;;;;5093481;28;20174;-68
2022/07/03 01:33:08;;;;;;;2.93;1.53;;;18.00;1.00;;;;;;5093702;28;20170;-68
2022/07/03 01:35:37;;;;;;;2.87;1.50;;;18.00;1.00;;;;;;5093869;28;20253;-68
2022/07/03 01:38:11;;;;;;;2.07;1.60;;;18.00;1.00;;;;;;5093489;28;20167;-68
2022/07/03 01:40:40;;;;;;;2.03;1.73;;;17.90;1.00;;;;;;5093632;28;20628;-67
2022/07/03 01:43:11;;;;;;;3.23;1.60;;;17.90;1.00;;;;;;5093394;28;20176;-69
2022/07/03 01:45:42;;;;;;;2.17;1.43;;;17.70;1.00;;;;;;5093252;28;20176;-68
2022/07/03 01:48:10;;;;;;;1.60;1.50;;;17.60;1.00;;;;;;5093422;28;20179;-66
2022/07/03 01:50:37;;;;;;;1.80;1.70;;;17.50;1.00;;;;;;5093638;28;20168;-67
2022/07/03 01:53:06;;;;;;;3.40;1.67;;;17.50;1.00;;;;;;5093321;28;20184;-67
2022/07/03 01:55:32;;;;;;;4.23;2.70;;;17.40;1.00;;;;;;5093225;28;20199;-66
2022/07/03 01:57:59;;;;;;;2.13;1.60;;;17.50;1.00;;;;;;5093399;28;20528;-66
2022/07/03 02:00:25;;;;;;;1.93;1.60;;;17.50;1.00;;;;;;5093227;28;20313;-66
2022/07/03 02:02:59;;;;;;;1.60;1.50;;;17.60;1.00;;;;;;5093541;28;20671;-68
2022/07/03 02:05:44;;;;;;;1.73;1.63;;;17.50;1.00;;;;;;5093384;28;20182;-66
2022/07/03 02:08:51;;;;;;;1.40;1.30;;;17.60;1.00;;;;;;5096662;28;20231;-67
2022/07/03 02:11:19;;;;;;;2.47;1.20;;;17.50;1.00;;;;;;5086715;28;20179;-67
2022/07/03 02:13:50;;;;;;;1.30;1.20;;;17.50;1.00;;;;;;5097117;28;20167;-68
2022/07/03 02:16:22;;;;;;;1.60;1.50;;;17.50;1.00;;;;;;5097483;28;20210;-69
2022/07/03 02:19:03;;;;;;;1.80;1.40;;;17.50;1.00;;;;;;5097520;28;20251;-68
2022/07/03 02:21:30;;;;;;;2.13;1.20;;;17.60;1.00;;;;;;5097509;28;20189;-68
2022/07/03 02:24:01;;;;;;;1.27;1.17;;;17.60;1.00;;;;;;5097113;28;20632;-69
2022/07/03 02:26:32;;;;;;;1.47;1.37;;;17.50;1.00;;;;;;5097227;28;20251;-67
2022/07/03 02:29:06;;;;;;;1.97;1.40;;;17.40;1.00;;;;;;5096619;28;20183;-67
2022/07/03 02:31:43;;;;;;;1.83;1.23;;;17.40;1.00;;;;;;5097080;28;20236;-67
2022/07/03 02:34:16;;;;;;;1.60;1.50;;;17.40;1.00;;;;;;5097095;28;20211;-67
2022/07/03 02:36:46;;;;;;;1.43;1.23;;;17.40;1.00;;;;;;5097038;28;20202;-67
2022/07/03 02:39:19;;;;;;;1.73;1.30;;;17.40;1.00;;;;;;5095597;28;20199;-67
2022/07/03 02:41:56;;;;;;;1.80;1.60;;;17.50;1.00;;;;;;5097145;28;20203;-67
2022/07/03 02:44:46;;;;;;;2.50;1.37;;;17.50;1.00;;;;;;5096562;28;20255;-67
2022/07/03 02:47:25;;;;;;;4.50;1.60;;;17.40;1.00;;;;;;5086736;28;20270;-68
2022/07/03 02:50:01;;;;;;;2.30;1.33;;;17.50;1.00;;;;;;5096785;28;20217;-67
2022/07/03 02:52:38;;;;;;;3.63;1.63;;;17.40;1.00;;;;;;5096631;28;20187;-67
2022/07/03 02:55:16;;;;;;;2.77;1.40;;;17.40;1.00;;;;;;5096720;28;20208;-67
2022/07/03 02:57:43;;;;;;;1.77;1.50;;;17.40;1.00;;;;;;5096428;28;20205;-67
2022/07/03 03:00:10;;;;;;;7.63;1.70;;;17.40;1.00;;;;;;5096617;28;20233;-67
2022/07/03 03:02:42;;;;;;;2.17;1.60;;;17.40;1.00;;;;;;5096641;28;20160;-67
2022/07/03 03:05:36;;;;;;;2.03;1.57;;;17.30;1.00;;;;;;5096384;28;20180;-68
2022/07/03 03:08:23;;;;;;;3.30;1.60;;;17.30;1.00;;;;;;5096088;28;20222;-67
2022/07/03 03:10:50;;;;;;;3.83;1.40;;;17.30;1.00;;;;;;5096475;28;20193;-67
2022/07/03 03:13:19;;;;;;;1.97;1.40;;;17.40;1.00;;;;;;5096027;28;20172;-67
2022/07/03 03:16:03;;;;;;;2.43;1.40;;;17.50;1.00;;;;;;5096316;28;20235;-67
2022/07/03 03:18:29;;;;;;;3.83;1.53;;;17.50;1.00;;;;;;5095258;28;20183;-68
2022/07/03 03:20:59;;;;;;;2.80;1.67;;;17.50;1.00;;;;;;5094942;28;20179;-66
2022/07/03 03:23:43;;;;;;;2.53;1.40;;;17.50;1.00;;;;;;5096268;28;20168;-67
2022/07/03 03:26:11;;;;;;;1.87;1.70;;;17.60;1.00;;;;;;5096259;28;20164;-67
2022/07/03 03:28:37;;;;;;;2.60;1.70;;;17.50;1.00;;;;;;5095761;28;20207;-67
2022/07/03 03:31:07;;;;;;;2.63;1.60;;;17.40;1.00;;;;;;5095807;28;20199;-67
2022/07/03 03:33:43;;;;;;;2.80;1.93;;;17.40;1.00;;;;;;5096122;28;20160;-67
2022/07/03 03:36:13;;;;;;;2.87;1.77;;;17.40;1.00;;;;;;5095914;28;20279;-67
2022/07/03 03:38:40;;;;;;;1.83;1.60;;;17.40;1.00;;;;;;5095830;28;20176;-67
2022/07/03 03:41:07;;;;;;;3.30;1.80;;;17.40;1.00;;;;;;5095422;28;20206;-67
2022/07/03 03:43:34;;;;;;;1.67;1.57;;;17.30;1.00;;;;;;5095370;28;20175;-67
2022/07/03 03:46:00;;;;;;;3.83;1.70;;;17.20;1.00;;;;;;5095622;28;20232;-67
2022/07/03 03:48:31;;;;;;;1.83;1.73;;;17.20;1.00;;;;;;5095339;28;20176;-67
2022/07/03 03:50:57;;;;;;;1.63;1.53;;;17.30;1.00;;;;;;5095715;28;20164;-67
2022/07/03 03:53:24;;;;;;;1.60;1.50;;;17.50;1.00;;;;;;5095301;28;20191;-68
2022/07/03 03:56:08;;;;;;;4.40;1.70;;;17.50;1.00;;;;;;5095026;28;20207;-67
2022/07/03 03:58:37;;;;;;;1.83;1.50;;;17.70;1.00;;;;;;5095318;28;20639;-67
2022/07/03 04:01:04;;;;;;;2.37;1.50;;;17.70;1.00;;;;;;5095264;28;20176;-67
2022/07/03 04:03:31;;;;;;;3.33;1.47;;;17.60;1.00;;;;;;5095292;28;20168;-66
2022/07/03 04:05:57;;;;;;;3.37;1.40;;;17.60;1.00;;;;;;5093956;28;20576;-67
2022/07/03 04:08:24;;;;;;;3.27;1.80;;;17.60;1.00;;;;;;5094796;28;20230;-66
2022/07/03 04:10:50;;;;;;;4.57;1.80;;;17.50;1.00;;;;;;5094578;28;20168;-66
2022/07/03 04:13:17;;;;;;;5.10;2.07;;;17.50;1.00;;;;;;5095183;28;20178;-68
2022/07/03 04:15:43;;;;;;;3.07;1.50;;;17.50;1.00;;;;;;5094937;28;20679;-68
2022/07/03 04:18:08;;;;;;;1.97;1.77;;;17.50;1.00;;;;;;5094712;28;20168;-67
2022/07/03 04:20:35;;;;;;;5.50;1.70;;;17.50;1.00;;;;;;5094677;28;20639;-68
2022/07/03 04:23:00;;;;;;;2.70;1.90;;;17.60;1.00;;;;;;5094717;28;20164;-66
2022/07/03 04:25:26;;;;;;;2.97;1.73;;;17.30;1.00;;;;;;5094357;28;20176;-66
2022/07/03 04:27:52;;;;;;;2.03;1.77;;;17.30;1.00;;;;;;5094775;28;20175;-67
2022/07/03 04:30:18;;;;;;;2.30;1.80;;;17.30;1.00;;;;;;5093823;28;20208;-68
2022/07/03 04:32:44;;;;;;;3.70;1.67;;;17.30;1.00;;;;;;5094680;28;20225;-67
2022/07/03 04:35:11;;;;;;;2.00;1.80;;;17.30;1.00;;;;;;5094418;28;20314;-68
2022/07/03 04:37:36;;;;;;;1.73;1.63;;;17.60;1.00;;;;;;5094588;28;20289;-68
2022/07/03 04:40:02;;;;;;;2.37;1.50;;;18.70;1.00;;;;;;5093992;28;20209;-68
2022/07/03 04:42:28;;;;;;;2.20;1.27;;;19.90;1.00;;;;;;5094564;28;20172;-68
2022/07/03 04:44:54;;;;;;;1.42;1.30;;;21.20;99.90;;;;;;5094082;28;20175;-68
2022/07/03 04:47:20;;;;;;;1.83;1.50;;;21.70;99.90;;;;;;5094308;28;20163;-68
2022/07/03 04:49:46;;;;;;;3.45;1.50;;;22.20;1.00;;;;;;5094120;28;20270;-68
2022/07/03 04:52:11;;;;;;;3.15;1.70;;;23.10;1.00;;;;;;5094332;28;20218;-67
2022/07/03 04:54:37;;;;;;;2.30;1.90;;;23.80;96.80;;;;;;5093319;28;20620;-68
2022/07/03 04:57:03;;;;;;;4.63;3.30;;;24.10;1.00;;;;;;5094018;28;20167;-68
2022/07/03 04:59:29;;;;;;;2.15;1.60;;;25.10;1.00;;;;;;5094105;28;20168;-67
2022/07/03 05:01:55;;;;;;;2.58;1.60;;;24.70;1.00;;;;;;5094264;28;20627;-67
2022/07/03 05:04:20;;;;;;;1.70;1.50;;;24.60;1.00;;;;;;5094125;28;20599;-68
2022/07/03 05:06:46;;;;;;;1.83;1.55;;;25.20;1.00;;;;;;5093998;28;20186;-70
2022/07/03 05:09:12;;;;;;;2.22;1.88;;;26.20;99.90;;;;;;5093174;28;20223;-68
2022/07/03 05:11:38;;;;;;;1.58;1.40;;;27.10;99.90;;;;;;5093859;28;20658;-68
2022/07/03 05:14:04;;;;;;;2.08;1.50;;;26.50;99.90;;;;;;5093837;28;20223;-68
2022/07/03 05:16:30;;;;;;;3.22;2.00;;;25.60;99.90;;;;;;5093779;28;20176;-68
2022/07/03 05:18:56;;;;;;;1.67;1.58;;;24.80;99.90;;;;;;5093912;28;20167;-67
2022/07/03 05:21:22;;;;;;;1.70;1.60;;;23.80;1.00;;;;;;5093834;28;20273;-67
2022/07/03 05:23:47;;;;;;;1.55;1.45;;;22.90;99.90;;;;;;5093370;28;20195;-68
2022/07/03 05:26:13;;;;;;;2.20;1.88;;;23.00;1.00;;;;;;5093718;28;20183;-67
2022/07/03 05:28:39;;;;;;;2.70;1.80;;;22.90;1.00;;;;;;5093592;28;20164;-68
2022/07/03 05:31:05;;;;;;;1.67;1.58;;;23.50;99.90;;;;;;5093805;28;20259;-68
2022/07/03 05:33:31;;;;;;;3.95;1.98;;;24.50;1.00;;;;;;5093533;28;20535;-68
2022/07/03 05:35:57;;;;;;;1.75;1.65;;;25.60;1.00;;;;;;5093694;28;20292;-69
2022/07/03 05:41:08;;;;;;;5.00;1.98;;;26.50;99.90;;;;;;5093467;28;20191;-69
2022/07/03 05:43:34;;;;;;;3.03;1.90;;;27.40;99.90;;;;;;5093473;28;20168;-70
2022/07/03 05:45:59;;;;;;;3.15;1.83;;;28.20;99.90;;;;;;5093334;28;20176;-70
2022/07/03 05:48:25;;;;;;;3.97;1.63;;;28.20;99.90;;;;;;5093076;28;20252;-70
2022/07/03 05:50:51;;;;;;;1.67;1.58;;;29.70;99.90;;;;;;5093318;28;20208;-70
2022/07/03 05:53:17;;;;;;;1.85;1.65;;;29.60;99.90;;;;;;5092626;28;20218;-70
2022/07/03 05:55:43;;;;;;;3.50;1.92;;;30.00;99.90;;;;;;5093463;28;20633;-70
2022/07/03 05:58:08;;;;;;;2.20;1.70;;;29.70;99.90;;;;;;5093392;28;20179;-70
2022/07/03 06:00:34;;;;;;;2.03;1.60;;;29.80;99.90;;;;;;5092947;28;20175;-70
2022/07/03 06:03:01;;;;;;;2.22;1.75;;;29.90;99.90;;;;;;5093254;28;20171;-70
2022/07/03 06:05:27;;;;;;;1.88;1.60;;;31.00;99.90;;;;;;5092901;28;20171;-70
2022/07/03 06:07:52;;;;;;;2.05;1.70;;;31.50;99.90;;;;;;5091352;28;20578;-70
2022/07/03 06:10:18;;;;;;;1.92;1.40;;;31.60;99.90;;;;;;5093226;28;20607;-70
2022/07/03 06:12:44;;;;;;;5.32;1.80;;;32.10;99.90;;;;;;5093130;28;20198;-71
2022/07/03 06:15:09;;;;;;;1.60;1.50;;;33.10;99.90;;;;;;5092795;28;20212;-70
2022/07/03 06:17:36;;;;;;;1.42;1.30;;;33.30;99.90;;;;;;5093059;28;20695;-70
2022/07/03 06:20:02;;;;;;;2.00;1.50;;;32.40;99.90;;;;;;5092898;28;20218;-70
2022/07/03 06:22:28;;;;;;;1.88;1.50;;;32.70;99.90;;;;;;5092503;28;20661;-70
2022/07/03 06:24:54;;;;;;;1.50;1.40;;;33.00;99.90;;;;;;5093037;28;20176;-71
2022/07/03 06:27:19;;;;;;;2.00;1.40;;;33.30;97.70;;;;;;5093284;28;20176;-71
2022/07/03 06:29:45;;;;;;;3.05;1.60;;;33.20;99.00;;;;;;5092987;28;20646;-71
2022/07/03 06:32:10;;;;;;;1.65;1.42;;;33.00;98.70;;;;;;5092711;28;20247;-71
2022/07/03 06:34:36;;;;;;;3.10;1.70;;;30.50;99.70;;;;;;5092806;28;20295;-71
2022/07/03 06:37:02;;;;;;;2.97;1.40;;;28.50;99.90;;;;;;5092694;28;20203;-71
2022/07/03 06:39:27;;;;;;;2.40;1.50;;;27.60;99.90;;;;;;5092692;28;20578;-71
2022/07/03 06:41:53;;;;;;;1.77;1.58;;;25.80;99.90;;;;;;5092794;28;20175;-70
2022/07/03 06:44:18;;;;;;;2.97;1.38;;;25.40;1.00;;;;;;5092422;28;20172;-71
2022/07/03 06:46:44;;;;;;;2.72;1.48;;;26.00;1.00;;;;;;5092553;28;20650;-70
2022/07/03 06:49:10;;;;;;;1.58;1.40;;;26.60;1.00;;;;;;5092698;28;20168;-70
2022/07/03 06:51:35;;;;;;;4.13;1.70;;;27.00;99.90;;;;;;5092235;28;20627;-70
2022/07/03 06:54:01;;;;;;;2.50;1.45;;;26.60;99.90;;;;;;5093991;28;20171;-70
2022/07/03 06:56:27;;;;;;;2.65;1.17;;;26.10;1.00;;;;;;5096358;28;20164;-70
2022/07/03 06:58:52;;;;;;;2.60;1.50;;;26.60;1.00;;;;;;5096013;28;20168;-71
2022/07/03 07:01:18;;;;;;;2.05;1.45;;;27.60;99.90;;;;;;5096558;28;20211;-71
2022/07/03 07:03:43;;;;;;;1.95;1.30;;;27.70;99.90;;;;;;5096002;28;20175;-71
2022/07/03 07:06:09;;;;;;;2.50;1.35;;;27.10;99.90;;;;;;5096746;28;20527;-70
2022/07/03 07:08:35;;;;;;;1.27;1.17;;;26.50;99.90;;;;;;5096025;28;20261;-70
2022/07/03 07:11:01;;;;;;;2.15;1.40;;;26.60;99.90;;;;;;5096192;28;20172;-72
2022/07/03 07:13:27;;;;;;;1.50;1.40;;;26.60;99.90;;;;;;5094660;28;20651;-71
2022/07/03 07:15:52;;;;;;;2.35;1.35;;;28.10;99.90;;;;;;5095856;28;20294;-70
2022/07/03 07:18:18;;;;;;;2.92;1.50;;;26.90;99.90;;;;;;5095810;28;20191;-70
2022/07/03 07:20:44;;;;;;;3.95;1.77;;;27.50;99.90;;;;;;5095800;28;20176;-70
2022/07/03 07:23:09;;;;;;;3.50;1.55;;;28.00;99.90;;;;;;5095972;28;20240;-70
2022/07/03 07:25:36;;;;;;;2.20;1.73;;;28.40;99.90;;;;;;5095625;28;20179;-70
2022/07/03 07:28:01;;;;;;;2.78;1.42;;;29.60;99.90;;;;;;5095713;28;20264;-70
2022/07/03 07:30:27;;;;;;;2.17;1.77;;;31.10;99.90;;;;;;5095854;28;20203;-70
2022/07/03 07:32:52;;;;;;;2.58;1.60;;;32.00;99.90;;;;;;5095484;28;20192;-71
2022/07/03 07:35:18;;;;;;;3.40;1.50;;;33.30;99.90;;;;;;5095793;28;20245;-71
2022/07/03 07:37:44;;;;;;;2.08;1.30;;;33.50;99.90;;;;;;5095858;28;20661;-71
2022/07/03 07:40:10;;;;;;;3.22;1.70;;;34.30;97.00;;;;;;5095523;28;20197;-71
2022/07/03 07:42:36;;;;;;;2.08;1.40;;;34.10;91.30;;;;;;5095743;28;20179;-71
2022/07/03 07:45:01;;;;;;;3.45;1.33;;;34.50;87.20;;;;;;5095124;28;20526;-71
2022/07/03 07:47:27;;;;;;;2.17;1.58;;;33.40;82.90;;;;;;5094645;28;20167;-71
2022/07/03 07:49:52;;;;;;;2.00;1.58;;;33.30;87.20;;;;;;5095556;28;20186;-71
2022/07/03 07:52:18;;;;;;;1.63;1.40;;;33.70;79.70;;;;;;5095146;28;20600;-70
2022/07/03 07:54:44;;;;;;;4.70;2.00;;;32.60;87.60;;;;;;5094991;28;20247;-71
2022/07/03 07:57:09;;;;;;;3.35;2.00;;;31.50;90.50;;;;;;5094996;28;20181;-72
2022/07/03 07:59:35;;;;;;;2.90;1.83;;;30.70;97.80;;;;;;5094794;28;20249;-71
2022/07/03 08:07:29;;;;;;;2.60;1.45;;;31.70;99.90;;;;;;5094783;28;20215;-73
2022/07/03 08:09:54;;;;;;;2.47;1.50;;;32.40;99.50;;;;;;5095166;28;20172;-71
2022/07/03 08:12:20;;;;;;;4.15;3.25;;;32.10;98.60;;;;;;5094320;28;20167;-72
2022/07/03 08:14:46;;;;;;;1.92;1.50;;;33.00;95.30;;;;;;5094895;28;20615;-72
2022/07/03 08:17:11;;;;;;;2.05;1.30;;;33.10;90.10;;;;;;5094852;28;20272;-72
2022/07/03 08:19:37;;;;;;;2.58;1.20;;;33.30;85.40;;;;;;5094655;28;20208;-72
2022/07/03 08:22:03;;;;;;;3.13;1.40;;;31.80;87.10;;;;;;5094594;28;20531;-73
2022/07/03 08:24:28;;;;;;;2.92;1.33;;;31.70;94.10;;;;;;5095175;28;20175;-73
2022/07/03 08:26:54;;;;;;;1.40;1.10;;;32.50;94.90;;;;;;5094824;28;20641;-72
2022/07/03 08:29:20;;;;;;;1.83;1.40;;;32.90;86.10;;;;;;5092972;28;20176;-73
2022/07/03 08:31:45;;;;;;;1.88;1.10;;;32.50;82.60;;;;;;5094467;28;20168;-71
2022/07/03 08:34:13;;;;;;;2.25;0.80;;;32.10;89.40;;;;;;5093911;28;20196;-71
2022/07/03 08:36:41;;;;;;;1.52;1.00;;;31.90;92.70;;;;;;5094478;28;20180;-71
2022/07/03 08:39:07;;;;;;;1.80;1.10;;;32.00;92.40;;;;;;5094075;28;20201;-71
2022/07/03 08:41:36;;;;;;;1.15;1.05;;;32.30;88.20;;;;;;5094470;28;20271;-72
2022/07/03 08:44:03;;;;;;;3.17;1.02;;;33.10;84.10;;;;;;5094629;28;20164;-71
2022/07/03 08:46:31;;;;;;;1.27;1.02;;;32.10;88.70;;;;;;5093895;28;20183;-72
2022/07/03 08:48:59;;;;;;;1.25;0.98;;;32.30;87.80;;;;;;5093928;28;20627;-72
2022/07/03 08:51:24;;;;;;;2.40;1.27;;;32.00;88.80;;;;;;5094097;28;20742;-72
2022/07/03 08:53:56;;;;;;;2.45;1.20;;;32.50;86.80;;;;;;5094161;28;20271;-72
2022/07/03 08:56:25;;;;;;;1.67;0.90;;;32.70;88.30;;;;;;5094315;28;20191;-73
2022/07/03 08:58:51;;;;;;;2.70;1.20;;;32.80;82.50;;;;;;5093468;28;20175;-72
2022/07/03 09:01:18;;;;;;;2.15;1.10;;;33.60;73.40;;;;;;5092480;28;20183;-72
2022/07/03 09:03:45;;;;;;;1.25;1.15;;;33.20;68.90;;;;;;5094018;28;20226;-71
2022/07/03 09:06:13;;;;;;;1.90;1.10;;;32.80;72.20;;;;;;5094261;28;20179;-70
2022/07/03 09:08:39;;;;;;;1.38;0.95;;;31.80;74.70;;;;;;5093262;28;20235;-72
2022/07/03 09:11:05;;;;;;;1.85;1.10;;;31.90;77.40;;;;;;5093478;28;20172;-72
2022/07/03 09:13:31;;;;;;;0.80;0.80;;;31.60;78.40;;;;;;5093703;28;20194;-72
2022/07/03 09:15:56;;;;;;;1.75;1.10;;;31.90;84.40;;;;;;5093272;28;20250;-72
2022/07/03 09:18:42;;;;;;;1.52;0.70;;;31.90;81.60;;;;;;5093481;28;20657;-72
2022/07/03 09:21:11;;;;;;;1.83;0.80;;;32.60;75.40;;;;;;5093800;28;20172;-72
2022/07/03 09:23:42;;;;;;;1.80;1.30;;;32.90;75.20;;;;;;5093360;28;20171;-73
2022/07/03 09:26:13;;;;;;;4.88;1.10;;;32.60;75.90;;;;;;5093676;28;20803;-71
2022/07/03 09:28:55;;;;;;;3.22;0.95;;;32.30;76.30;;;;;;5093674;28;20172;-71
2022/07/03 09:31:25;;;;;;;0.93;0.68;;;31.80;82.10;;;;;;5093828;28;20168;-71
2022/07/03 09:33:55;;;;;;;1.75;0.95;;;32.40;72.90;;;;;;5093490;28;20172;-71
2022/07/03 09:36:23;;;;;;;1.20;0.90;;;31.70;69.60;;;;;;5093315;28;20558;-71
2022/07/03 09:38:48;;;;;;;0.82;0.80;;;30.30;85.10;;;;;;5093624;28;20160;-71
2022/07/03 09:41:14;;;;;;;2.38;1.00;;;30.50;92.40;;;;;;5093008;28;20631;-72
2022/07/03 09:43:43;;;;;;;3.78;1.00;;;31.30;85.60;;;;;;5093117;28;20511;-72
2022/07/03 09:46:10;;;;;;;1.58;0.98;;;30.70;90.10;;;;;;5093118;28;20164;-71
2022/07/03 09:48:37;;;;;;;1.90;1.10;;;30.30;94.50;;;;;;5091833;28;20703;-72
2022/07/03 09:51:17;;;;;;;2.05;1.27;;;30.50;98.90;;;;;;5093326;28;20650;-71
2022/07/03 09:54:02;;;;;;;2.92;1.05;;;31.20;96.80;;;;;;5093101;28;20198;-71
2022/07/03 09:56:38;;;;;;;3.15;0.80;;;31.60;92.10;;;;;;5092923;28;20278;-72
2022/07/03 09:59:14;;;;;;;0.98;0.80;;;30.70;91.50;;;;;;5092136;28;20163;-72
2022/07/03 10:01:46;;;;;;;0.90;0.90;;;29.70;99.90;;;;;;5093025;28;20167;-72
2022/07/03 10:04:23;;;;;;;2.80;1.00;;;29.30;99.90;;;;;;5092807;28;20250;-72
2022/07/03 10:07:00;;;;;;;1.27;1.05;;;28.80;99.90;;;;;;5093066;28;20642;-71
2022/07/03 10:09:34;;;;;;;1.08;0.88;;;28.90;99.90;;;;;;5072795;28;20184;-72
2022/07/03 10:12:01;;;;;;;1.95;0.90;;;29.20;99.90;;;;;;5072506;28;20636;-72
2022/07/03 10:14:31;;;;;;;0.80;0.70;;;28.90;99.90;;;;;;5072360;28;20232;-71
2022/07/03 10:16:59;;;;;;;2.45;0.90;;;28.80;99.90;;;;;;5072987;28;20175;-71
2022/07/03 10:19:38;;;;;;;2.15;0.60;;;28.70;99.90;;;;;;5071450;28;20219;-70
2022/07/03 10:22:09;;;;;;;0.90;0.60;;;29.50;99.90;;;;;;5071194;28;20226;-71
2022/07/03 10:24:36;;;;;;;0.70;0.52;;;28.00;99.90;;;;;;5072532;28;20165;-70
2022/07/03 10:27:02;;;;;;;0.35;0.35;;;27.40;99.90;;;;;;5071998;28;20217;-72
2022/07/03 10:29:29;;;;;;;0.70;0.60;;;27.60;99.90;;;;;;5074819;28;20198;-71
2022/07/03 10:31:55;;;;;;;1.23;0.70;;;27.60;99.90;;;;;;5076390;28;20165;-71
2022/07/03 10:34:23;;;;;;;0.77;0.70;;;27.80;99.90;;;;;;5075034;28;20208;-70
2022/07/03 10:36:53;;;;;;;0.75;0.60;;;27.20;99.90;;;;;;5076748;28;20172;-70
2022/07/03 10:46:09;;;;;;;1.25;0.70;;;27.00;99.90;;;;;;4995289;28;20182;-70
2022/07/03 10:48:53;;;;;;;1.48;1.00;;;26.00;99.90;;;;;;4994105;28;20179;-72
2022/07/03 10:51:19;;;;;;;1.55;0.90;;;25.80;99.90;;;;;;4994765;28;20678;-71
2022/07/03 10:53:45;;;;;;;0.80;0.80;;;25.70;99.90;;;;;;4994417;28;20207;-71
2022/07/03 10:56:10;;;;;;;1.48;0.85;;;25.70;99.90;;;;;;4994518;28;20246;-71
2022/07/03 10:58:58;;;;;;;3.83;0.95;;;25.10;99.90;;;;;;4994144;28;20262;-71
2022/07/03 11:01:31;;;;;;;1.88;0.95;;;25.20;99.90;;;;;;4994495;28;20189;-71
2022/07/03 11:04:01;;;;;;;2.30;1.20;;;25.90;99.90;;;;;;4994358;28;20183;-71
2022/07/03 11:06:44;;;;;;;0.95;0.80;;;26.40;99.90;;;;;;4994652;28;20184;-70
2022/07/03 11:09:12;;;;;;;1.23;0.88;;;26.10;99.90;;;;;;4994129;28;20223;-71
2022/07/03 11:11:55;;;;;;;2.75;1.30;;;25.60;99.90;;;;;;4993247;28;20620;-71
2022/07/03 11:14:28;;;;;;;1.27;1.00;;;25.40;99.90;;;;;;4994612;28;20215;-71
2022/07/03 11:17:19;;;;;;;1.67;1.20;;;25.50;99.90;;;;;;4994567;28;20280;-71
2022/07/03 11:20:23;;;;;;;1.48;1.10;;;25.80;99.90;;;;;;5039791;28;20287;-71
2022/07/03 11:22:59;;;;;;;1.60;1.00;;;25.30;99.90;;;;;;5075507;28;20176;-70
2022/07/03 11:25:25;;;;;;;1.85;0.80;;;24.70;99.90;;;;;;5074361;28;20263;-69
2022/07/03 11:27:52;;;;;;;1.20;0.82;;;24.60;99.90;;;;;;5074714;28;20182;-70
2022/07/03 11:30:18;;;;;;;1.60;0.82;;;25.00;99.90;;;;;;5075603;28;20212;-69
2022/07/03 11:32:52;;;;;;;2.60;0.77;;;25.20;99.90;;;;;;5075811;28;20276;-70
2022/07/03 11:35:49;;;;;;;1.27;0.80;;;25.90;99.90;;;;;;5075263;28;20204;-70
2022/07/03 11:38:26;;;;;;;1.13;0.80;;;26.70;99.90;;;;;;5074782;28;20161;-70
2022/07/03 11:40:53;;;;;;;1.30;0.82;;;26.90;99.90;;;;;;5074465;28;20157;-70
2022/07/03 11:43:19;;;;;;;1.60;0.90;;;27.10;99.90;;;;;;5075420;28;20640;-70
2022/07/03 11:45:49;;;;;;;1.30;1.00;;;27.20;99.90;;;;;;5075468;28;20179;-70
2022/07/03 11:48:17;;;;;;;1.45;0.70;;;27.50;99.90;;;;;;5074527;28;20207;-70
2022/07/03 11:50:46;;;;;;;0.95;0.70;;;27.00;99.90;;;;;;5075133;28;20536;-69
2022/07/03 11:53:18;;;;;;;1.67;0.80;;;26.40;99.90;;;;;;5074888;28;20246;-68
2022/07/03 11:55:48;;;;;;;0.80;0.80;;;26.70;99.90;;;;;;5074555;28;20196;-70
2022/07/03 11:58:14;;;;;;;0.75;0.70;;;26.50;99.90;;;;;;5075023;28;20161;-69
2022/07/03 12:00:40;;;;;;;2.25;0.95;;;26.00;99.90;;;;;;5074829;28;20187;-69
2022/07/03 12:03:05;;;;;;;1.45;0.90;;;25.90;99.90;;;;;;5074736;28;20176;-70
2022/07/03 12:05:31;;;;;;;0.73;0.70;;;25.80;99.90;;;;;;5074363;28;20659;-69
2022/07/03 12:08:04;;;;;;;1.88;0.70;;;25.70;99.90;;;;;;5082043;28;20220;-69
2022/07/03 12:10:41;;;;;;;2.72;0.70;;;25.20;99.90;;;;;;5094606;28;20627;-69
2022/07/03 12:13:22;;;;;;;0.77;0.77;;;25.30;99.90;;;;;;5094643;28;20172;-69
2022/07/03 12:15:48;;;;;;;2.22;0.80;;;25.30;99.90;;;;;;5094920;28;20208;-69
2022/07/03 12:18:15;;;;;;;1.05;0.65;;;25.70;99.90;;;;;;5095048;28;20198;-69
2022/07/03 12:20:41;;;;;;;1.70;0.80;;;25.40;99.90;;;;;;5093926;28;20305;-69
2022/07/03 12:23:06;;;;;;;1.20;0.52;;;25.60;99.90;;;;;;5093034;28;20633;-69
2022/07/03 12:25:37;;;;;;;1.83;0.70;;;25.20;99.90;;;;;;5095088;28;20191;-70
2022/07/03 12:28:04;;;;;;;1.98;0.90;;;25.20;99.90;;;;;;5094413;28;20168;-70
2022/07/03 12:30:30;;;;;;;1.33;0.70;;;24.90;99.90;;;;;;5094574;28;20640;-70
2022/07/03 12:32:56;;;;;;;1.38;1.00;;;25.20;99.90;;;;;;5094533;28;20191;-70
2022/07/03 12:35:26;;;;;;;1.17;0.90;;;25.30;99.90;;;;;;5093998;28;20565;-70
2022/07/03 12:37:52;;;;;;;2.00;0.80;;;25.00;99.90;;;;;;5093893;28;20190;-70
2022/07/03 12:40:18;;;;;;;1.25;0.80;;;24.30;99.90;;;;;;5094165;28;20604;-71
2022/07/03 12:42:50;;;;;;;0.98;0.80;;;24.40;99.90;;;;;;5094240;28;20201;-69
2022/07/03 12:45:21;;;;;;;1.67;1.02;;;24.60;99.90;;;;;;5094257;28;20176;-69
2022/07/03 12:48:01;;;;;;;3.65;0.90;;;24.50;99.90;;;;;;5093640;28;20193;-70
2022/07/03 12:50:43;;;;;;;2.17;1.50;;;24.70;99.90;;;;;;5093741;28;20179;-70
2022/07/03 12:53:09;;;;;;;2.28;1.20;;;24.60;99.90;;;;;;5093433;28;20187;-71
2022/07/03 12:55:35;;;;;;;1.33;0.90;;;24.80;99.90;;;;;;5094179;28;20215;-71
2022/07/03 13:00:59;;;;;;;2.25;0.98;;;25.70;99.90;;;;;;5094736;28;20175;-71
2022/07/03 13:03:29;;;;;;;3.40;0.90;;;25.70;99.90;;;;;;5093933;28;20627;-71
2022/07/03 13:05:55;;;;;;;3.20;1.00;;;25.60;99.90;;;;;;5093600;28;20168;-70
2022/07/03 13:08:21;;;;;;;1.80;0.88;;;25.30;99.90;;;;;;5092951;28;20306;-71
2022/07/03 13:10:57;;;;;;;2.50;0.90;;;25.40;99.90;;;;;;5093829;28;20209;-72
2022/07/03 13:13:23;;;;;;;2.50;0.73;;;25.40;99.90;;;;;;5093609;28;20176;-72
2022/07/03 13:15:49;;;;;;;2.00;1.10;;;25.60;99.90;;;;;;5093547;28;20211;-72
2022/07/03 13:18:14;;;;;;;4.55;1.02;;;25.70;99.90;;;;;;5093861;28;20160;-70
2022/07/03 13:20:40;;;;;;;1.27;0.88;;;26.00;99.90;;;;;;5093084;28;20646;-70